createdAt,value
2019-03-22T00:00:21.518Z,10.38
2019-03-22T00:02:50.011Z,12.40
2019-03-22T00:05:18.524Z,12.05
2019-03-22T00:07:48.609Z,9.43
2019-03-22T00:10:17.318Z,12.68
2019-03-22T00:12:45.743Z,12.98
2019-03-22T00:15:15.150Z,12.53
2019-03-22T00:17:43.685Z,11.45
2019-03-22T00:20:12.649Z,15.03
2019-03-22T00:22:41.269Z,14.65
2019-03-22T00:25:09.808Z,11.97
2019-03-22T00:27:38.219Z,9.30
2019-03-22T00:30:08.262Z,12.80
2019-03-22T00:32:36.748Z,10.08
2019-03-22T00:35:09.046Z,13.78
2019-03-22T00:37:37.654Z,9.75
2019-03-22T00:40:10.313Z,9.38
2019-03-22T00:42:38.845Z,10.55
2019-03-22T00:45:09.140Z,9.38
2019-03-22T00:47:37.666Z,9.68
2019-03-22T00:50:09.401Z,10.63
2019-03-22T00:52:37.851Z,13.65
2019-03-22T00:55:07.278Z,10.15
2019-03-22T00:57:37.415Z,9.13
2019-03-22T01:00:08.944Z,10.05
2019-03-22T01:02:37.481Z,10.50
2019-03-22T01:05:09.714Z,10.93
2019-03-22T01:07:38.230Z,12.50
2019-03-22T01:10:12.229Z,11.78
2019-03-22T01:12:40.974Z,13.25
2019-03-22T01:15:11.768Z,10.45
2019-03-22T01:17:40.269Z,11.65
2019-03-22T01:20:10.552Z,8.73
2019-03-22T01:22:39.841Z,11.33
2019-03-22T01:25:10.032Z,9.10
2019-03-22T01:27:40.720Z,8.95
2019-03-22T01:30:16.841Z,9.58
2019-03-22T01:32:45.316Z,10.10
2019-03-22T01:35:14.321Z,8.43
2019-03-22T01:37:42.780Z,11.05
2019-03-22T01:40:14.239Z,9.73
2019-03-22T01:42:42.831Z,11.05
2019-03-22T01:45:13.199Z,11.57
2019-03-22T01:47:41.854Z,9.13
2019-03-22T01:50:15.503Z,15.00
2019-03-22T01:52:43.975Z,10.03
2019-03-22T01:55:12.582Z,9.18
2019-03-22T01:57:52.454Z,13.35
2019-03-22T02:00:18.219Z,10.28
2019-03-22T02:02:46.844Z,8.90
2019-03-22T02:05:16.084Z,10.28
2019-03-22T02:07:44.787Z,10.78
2019-03-22T02:10:13.347Z,10.20
2019-03-22T02:12:42.700Z,11.53
2019-03-22T02:15:16.172Z,10.15
2019-03-22T02:17:44.895Z,11.33
2019-03-22T02:20:15.551Z,9.05
2019-03-22T02:22:44.145Z,10.10
2019-03-22T02:25:12.991Z,9.20
2019-03-22T02:27:42.491Z,12.43
2019-03-22T02:30:13.729Z,8.08
2019-03-22T02:32:42.319Z,9.03
2019-03-22T02:35:26.975Z,10.15
2019-03-22T02:37:41.317Z,10.78
2019-03-22T02:40:11.653Z,10.53
2019-03-22T02:42:40.066Z,12.05
2019-03-22T02:45:10.857Z,12.30
2019-03-22T02:47:39.372Z,11.73
2019-03-22T02:50:17.704Z,13.58
2019-03-22T02:52:40.584Z,14.85
2019-03-22T02:55:10.442Z,11.90
2019-03-22T02:57:38.945Z,10.58
2019-03-22T03:00:13.258Z,10.70
2019-03-22T03:02:41.766Z,15.00
2019-03-22T03:05:11.052Z,10.53
2019-03-22T03:07:39.537Z,10.68
2019-03-22T03:10:12.890Z,10.75
2019-03-22T03:12:41.432Z,12.80
2019-03-22T03:15:15.368Z,12.85
2019-03-22T03:17:43.947Z,13.22
2019-03-22T03:20:16.762Z,10.55
2019-03-22T03:22:45.298Z,11.30
2019-03-22T03:25:14.141Z,14.63
2019-03-22T03:27:42.566Z,11.40
2019-03-22T03:30:19.812Z,16.40
2019-03-22T03:32:48.416Z,11.18
2019-03-22T03:35:18.001Z,11.60
2019-03-22T03:37:46.549Z,10.50
2019-03-22T03:40:16.757Z,10.30
2019-03-22T03:42:45.212Z,12.50
2019-03-22T03:45:35.919Z,10.60
2019-03-22T03:48:10.238Z,11.68
2019-03-22T03:50:38.986Z,14.47
2019-03-22T03:53:07.586Z,12.73
2019-03-22T03:55:36.339Z,15.43
2019-03-22T03:58:06.042Z,12.47
2019-03-22T04:00:34.614Z,12.50
2019-03-22T04:03:03.227Z,17.48
2019-03-22T04:05:31.828Z,10.53
2019-03-22T04:08:00.335Z,12.18
2019-03-22T04:10:28.761Z,11.90
2019-03-22T04:12:57.378Z,14.00
2019-03-22T04:15:25.749Z,14.07
2019-03-22T04:17:54.284Z,12.50
2019-03-22T04:20:24.252Z,13.32
2019-03-22T04:22:52.698Z,12.82
2019-03-22T04:25:21.119Z,15.32
2019-03-22T04:27:49.649Z,10.88
2019-03-22T04:30:18.232Z,11.43
2019-03-22T04:32:46.674Z,11.50
2019-03-22T04:35:15.238Z,11.80
2019-03-22T04:37:43.699Z,39.50
2019-03-22T04:40:26.160Z,45.33
2019-03-22T04:42:54.775Z,40.00
2019-03-22T04:45:25.132Z,34.63
2019-03-22T04:48:05.731Z,36.45
2019-03-22T04:50:37.213Z,28.60
2019-03-22T04:53:07.441Z,24.72
2019-03-22T04:55:37.673Z,24.05
2019-03-22T04:58:08.115Z,22.13
2019-03-22T05:00:37.673Z,15.08
2019-03-22T05:03:10.822Z,19.00
2019-03-22T05:05:39.606Z,16.42
2019-03-22T05:08:08.975Z,19.02
2019-03-22T05:10:38.770Z,17.60
2019-03-22T05:13:08.983Z,15.90
2019-03-22T05:15:38.404Z,14.50
2019-03-22T05:18:07.078Z,17.48
2019-03-22T05:20:36.338Z,18.20
2019-03-22T05:23:05.821Z,15.55
2019-03-22T05:25:35.518Z,12.37
2019-03-22T05:28:05.812Z,16.32
2019-03-22T05:30:53.749Z,15.68
2019-03-22T05:33:22.242Z,14.93
2019-03-22T05:35:50.661Z,11.85
2019-03-22T05:38:19.086Z,13.68
2019-03-22T05:40:47.557Z,17.85
2019-03-22T05:43:16.010Z,17.30
2019-03-22T05:45:45.475Z,17.32
2019-03-22T05:48:13.933Z,19.98
2019-03-22T05:50:42.357Z,17.73
2019-03-22T05:53:10.792Z,16.73
2019-03-22T05:55:39.360Z,18.00
2019-03-22T05:58:07.846Z,23.12
2019-03-22T06:00:36.347Z,29.77
2019-03-22T06:03:04.905Z,19.23
2019-03-22T06:05:33.319Z,24.85
2019-03-22T06:08:01.773Z,22.22
2019-03-22T06:10:30.216Z,17.12
2019-03-22T06:12:58.633Z,16.97
2019-03-22T06:15:27.179Z,15.32
2019-03-22T06:17:55.599Z,15.93
2019-03-22T06:20:24.084Z,16.05
2019-03-22T06:22:52.564Z,13.62
2019-03-22T06:25:21.118Z,13.45
2019-03-22T06:27:49.841Z,12.07
2019-03-22T06:30:18.331Z,11.75
2019-03-22T06:32:46.761Z,14.05
2019-03-22T06:35:15.216Z,14.40
2019-03-22T06:37:43.634Z,16.30
2019-03-22T06:40:12.506Z,18.27
2019-03-22T06:42:41.300Z,19.07
2019-03-22T06:45:09.860Z,15.38
2019-03-22T06:47:38.356Z,14.35
2019-03-22T06:50:07.641Z,16.02
2019-03-22T06:52:36.130Z,12.37
2019-03-22T06:55:06.651Z,14.43
2019-03-22T06:57:35.210Z,11.40
2019-03-22T07:00:07.476Z,10.50
2019-03-22T07:02:36.150Z,14.98
2019-03-22T07:05:06.414Z,11.45
2019-03-22T07:07:34.997Z,12.53
2019-03-22T07:10:05.161Z,14.25
2019-03-22T07:12:33.683Z,15.20
2019-03-22T07:15:02.114Z,12.45
2019-03-22T07:17:30.534Z,13.98
2019-03-22T07:19:59.074Z,12.28
2019-03-22T07:22:27.530Z,11.90
2019-03-22T07:24:56.038Z,13.30
2019-03-22T07:27:24.453Z,12.23
2019-03-22T07:29:53.175Z,12.78
2019-03-22T07:32:21.747Z,12.68
2019-03-22T07:34:50.166Z,13.85
2019-03-22T07:37:18.836Z,11.38
2019-03-22T07:39:47.303Z,11.95
2019-03-22T07:42:17.576Z,12.23
2019-03-22T07:44:45.864Z,10.03
2019-03-22T07:47:14.292Z,12.37
2019-03-22T07:49:42.759Z,11.45
2019-03-22T07:52:11.288Z,11.08
2019-03-22T07:54:39.702Z,10.50
2019-03-22T07:57:08.160Z,11.30
2019-03-22T07:59:36.632Z,9.78
2019-03-22T08:02:05.200Z,11.53
2019-03-22T08:04:33.647Z,9.80
2019-03-22T08:07:02.156Z,12.37
2019-03-22T08:09:30.607Z,12.60
2019-03-22T08:11:59.546Z,12.13
2019-03-22T08:14:28.072Z,13.58
2019-03-22T08:16:56.581Z,12.95
2019-03-22T08:19:25.187Z,13.83
2019-03-22T08:21:53.675Z,16.05
2019-03-22T08:24:22.563Z,12.20
2019-03-22T08:26:50.998Z,12.65
2019-03-22T08:29:19.469Z,13.28
2019-03-22T08:31:47.891Z,11.60
2019-03-22T08:34:16.319Z,11.05
2019-03-22T08:36:44.792Z,11.30
2019-03-22T08:39:13.211Z,11.10
2019-03-22T08:41:41.723Z,11.65
2019-03-22T08:44:10.282Z,12.93
2019-03-22T08:46:38.737Z,10.68
2019-03-22T08:49:09.448Z,11.20
2019-03-22T08:51:37.434Z,11.65
2019-03-22T08:54:05.982Z,12.23
2019-03-22T08:56:35.992Z,12.37
2019-03-22T08:59:04.921Z,11.12
2019-03-22T09:01:33.338Z,11.08
2019-03-22T09:04:01.834Z,12.07
2019-03-22T09:06:30.304Z,12.78
2019-03-22T09:08:58.734Z,11.53
2019-03-22T09:11:27.221Z,12.05
2019-03-22T09:13:55.681Z,13.22
2019-03-22T09:16:24.352Z,12.03
2019-03-22T09:18:52.743Z,11.85
2019-03-22T09:21:21.307Z,12.45
2019-03-22T09:23:49.717Z,11.63
2019-03-22T09:26:19.993Z,11.60
2019-03-22T09:28:48.337Z,13.98
2019-03-22T09:31:16.749Z,11.75
2019-03-22T09:33:45.238Z,11.22
2019-03-22T09:36:13.727Z,13.58
2019-03-22T09:38:42.148Z,12.37
2019-03-22T09:41:10.838Z,11.93
2019-03-22T09:43:39.399Z,12.23
2019-03-22T09:46:07.805Z,12.88
2019-03-22T09:48:36.247Z,11.05
2019-03-22T09:51:04.699Z,11.80
2019-03-22T09:53:33.128Z,11.53
2019-03-22T09:56:01.787Z,14.50
2019-03-22T09:58:30.224Z,11.55
2019-03-22T10:00:58.701Z,12.07
2019-03-22T10:03:27.217Z,12.60
2019-03-22T10:05:55.685Z,12.20
2019-03-22T10:08:24.158Z,12.13
2019-03-22T10:10:52.577Z,12.13
2019-03-22T10:13:21.005Z,11.78
2019-03-22T10:15:49.496Z,12.88
2019-03-22T10:18:17.944Z,11.73
2019-03-22T10:20:46.451Z,13.20
2019-03-22T10:23:14.866Z,12.15
2019-03-22T10:25:43.312Z,12.50
2019-03-22T10:28:11.842Z,12.00
2019-03-22T10:30:40.279Z,11.78
2019-03-22T10:33:21.747Z,12.60
2019-03-22T10:35:38.900Z,14.33
2019-03-22T10:38:15.935Z,12.82
2019-03-22T10:40:37.578Z,13.65
2019-03-22T10:43:06.109Z,13.90
2019-03-22T10:45:34.628Z,12.43
2019-03-22T10:48:03.125Z,13.48
2019-03-22T10:50:31.506Z,14.30
2019-03-22T10:53:00.132Z,14.05
2019-03-22T10:55:30.256Z,13.70
2019-03-22T10:57:58.939Z,13.83
2019-03-22T11:00:27.496Z,14.40
2019-03-22T11:02:56.023Z,12.58
2019-03-22T11:05:24.556Z,14.60
2019-03-22T11:07:53.044Z,13.93
2019-03-22T11:10:21.517Z,14.53
2019-03-22T11:12:49.927Z,13.68
2019-03-22T11:15:18.344Z,14.58
2019-03-22T11:17:47.035Z,13.50
2019-03-22T11:20:18.564Z,13.70
2019-03-22T11:22:47.009Z,16.10
2019-03-22T11:25:15.596Z,15.08
2019-03-22T11:27:44.100Z,14.05
2019-03-22T11:30:18.462Z,16.65
2019-03-22T11:32:47.025Z,15.50
2019-03-22T11:35:15.854Z,16.70
2019-03-22T11:37:44.468Z,15.75
2019-03-22T11:40:15.407Z,14.80
2019-03-22T11:42:44.007Z,14.75
2019-03-22T11:45:18.336Z,15.63
2019-03-22T11:47:47.035Z,16.23
2019-03-22T11:50:15.618Z,16.55
2019-03-22T11:52:44.133Z,17.55
2019-03-22T11:55:13.994Z,16.02
2019-03-22T11:57:42.595Z,16.32
2019-03-22T12:00:20.024Z,17.82
2019-03-22T12:02:48.465Z,16.02
2019-03-22T12:05:18.022Z,16.17
2019-03-22T12:07:46.622Z,16.27
2019-03-22T12:10:18.305Z,17.87
2019-03-22T12:12:46.833Z,16.05
2019-03-22T12:15:18.609Z,19.57
2019-03-22T12:17:47.205Z,18.05
2019-03-22T12:20:21.102Z,17.45
2019-03-22T12:22:49.535Z,16.27
2019-03-22T12:25:21.215Z,16.42
2019-03-22T12:27:49.666Z,17.75
2019-03-22T12:30:18.930Z,16.82
2019-03-22T12:32:47.448Z,18.00
2019-03-22T12:35:17.423Z,20.77
2019-03-22T12:37:46.200Z,18.90
2019-03-22T12:40:22.766Z,18.85
2019-03-22T12:42:51.643Z,17.77
2019-03-22T12:45:32.752Z,17.95
2019-03-22T12:48:01.475Z,17.90
2019-03-22T12:50:30.054Z,18.95
2019-03-22T12:52:58.579Z,18.23
2019-03-22T12:55:27.205Z,17.92
2019-03-22T12:57:55.635Z,18.73
2019-03-22T13:00:25.347Z,19.90
2019-03-22T13:02:54.520Z,18.17
2019-03-22T13:05:23.397Z,17.75
2019-03-22T13:07:52.098Z,19.77
2019-03-22T13:10:24.723Z,20.17
2019-03-22T13:12:55.399Z,19.80
2019-03-22T13:15:23.989Z,23.52
2019-03-22T13:17:52.551Z,19.48
2019-03-22T13:20:21.086Z,19.07
2019-03-22T13:22:49.536Z,20.12
2019-03-22T13:25:21.106Z,19.17
2019-03-22T13:27:49.219Z,20.90
2019-03-22T13:30:28.997Z,22.90
2019-03-22T13:32:57.497Z,21.35
2019-03-22T13:35:25.934Z,20.08
2019-03-22T13:37:54.417Z,22.42
2019-03-22T13:40:23.125Z,21.30
2019-03-22T13:42:51.549Z,22.90
2019-03-22T13:45:20.079Z,23.02
2019-03-22T13:47:48.601Z,21.85
2019-03-22T13:50:17.345Z,22.27
2019-03-22T13:52:45.802Z,23.20
2019-03-22T13:55:14.607Z,21.65
2019-03-22T13:57:43.087Z,23.38
2019-03-22T14:00:16.365Z,21.70
2019-03-22T14:02:44.892Z,21.87
2019-03-22T14:05:13.535Z,21.40
2019-03-22T14:07:42.144Z,21.48
2019-03-22T14:10:19.223Z,23.45
2019-03-22T14:12:47.659Z,24.80
2019-03-22T14:15:16.073Z,22.60
2019-03-22T14:17:44.548Z,24.75
2019-03-22T14:20:13.200Z,22.70
2019-03-22T14:22:41.685Z,22.02
2019-03-22T14:25:10.746Z,22.35
2019-03-22T14:27:39.336Z,23.00
2019-03-22T14:30:10.021Z,22.30
2019-03-22T14:32:38.448Z,23.38
2019-03-22T14:35:08.050Z,22.75
2019-03-22T14:37:36.499Z,23.07
2019-03-22T14:40:06.365Z,24.60
2019-03-22T14:42:34.961Z,27.00
2019-03-22T14:45:05.569Z,22.95
2019-03-22T14:47:34.084Z,22.17
2019-03-22T14:50:02.597Z,23.70
2019-03-22T14:52:31.132Z,22.10
2019-03-22T14:54:59.574Z,23.22
2019-03-22T14:57:28.099Z,26.82
2019-03-22T14:59:59.117Z,22.87
2019-03-22T15:02:26.730Z,22.58
2019-03-22T15:04:55.230Z,23.62
2019-03-22T15:07:23.707Z,24.12
2019-03-22T15:09:52.203Z,23.25
2019-03-22T15:12:20.767Z,27.65
2019-03-22T15:14:50.963Z,24.23
2019-03-22T15:17:35.749Z,22.95
2019-03-22T15:20:07.202Z,29.45
2019-03-22T15:22:49.514Z,24.80
2019-03-22T15:25:35.526Z,24.05
2019-03-22T15:28:22.438Z,26.25
2019-03-22T15:30:52.496Z,26.45
2019-03-22T15:33:34.351Z,28.02
2019-03-22T15:36:00.443Z,27.90
2019-03-22T15:38:33.119Z,28.05
2019-03-22T15:41:01.688Z,30.60
2019-03-22T15:43:30.120Z,25.77
2019-03-22T15:45:58.595Z,24.77
2019-03-22T15:48:27.187Z,26.10
2019-03-22T15:50:55.722Z,27.48
2019-03-22T15:53:24.292Z,26.20
2019-03-22T15:55:52.828Z,25.88
2019-03-22T15:58:21.567Z,24.92
2019-03-22T16:00:50.002Z,29.30
2019-03-22T16:03:18.558Z,24.85
2019-03-22T16:05:47.037Z,29.15
2019-03-22T16:08:15.481Z,34.55
2019-03-22T16:10:43.938Z,27.50
2019-03-22T16:13:12.449Z,35.23
2019-03-22T16:15:40.984Z,39.25
2019-03-22T16:18:09.400Z,35.15
2019-03-22T16:20:37.982Z,26.65
2019-03-22T16:23:06.483Z,27.30
2019-03-22T16:25:34.982Z,28.25
2019-03-22T16:28:03.537Z,32.63
2019-03-22T16:30:32.078Z,30.10
2019-03-22T16:33:00.524Z,25.23
2019-03-22T16:35:29.134Z,24.05
2019-03-22T16:37:57.627Z,26.10
2019-03-22T16:40:26.095Z,27.62
2019-03-22T16:42:54.581Z,23.77
2019-03-22T16:45:34.248Z,25.23
2019-03-22T16:48:02.793Z,26.62
2019-03-22T16:50:31.308Z,24.70
2019-03-22T16:52:59.810Z,22.58
2019-03-22T16:55:28.359Z,24.18
2019-03-22T16:57:56.838Z,26.57
2019-03-22T17:00:25.302Z,27.27
2019-03-22T17:02:53.871Z,25.40
2019-03-22T17:05:22.419Z,24.63
2019-03-22T17:07:51.111Z,26.57
2019-03-22T17:10:19.578Z,25.88
2019-03-22T17:12:48.105Z,23.60
2019-03-22T17:15:16.606Z,27.98
2019-03-22T17:17:45.138Z,27.98
2019-03-22T17:20:15.171Z,24.75
2019-03-22T17:22:43.679Z,23.10
2019-03-22T17:25:12.287Z,24.05
2019-03-22T17:27:40.790Z,27.02
2019-03-22T17:30:10.987Z,26.75
2019-03-22T17:32:39.491Z,25.08
2019-03-22T17:35:08.327Z,31.48
2019-03-22T17:37:36.757Z,45.30
2019-03-22T17:40:07.452Z,204.03
2019-03-22T17:42:35.998Z,36.30
2019-03-22T17:45:10.299Z,23.70
2019-03-22T17:47:38.883Z,19.10
2019-03-22T17:50:09.266Z,45.08
2019-03-22T17:52:37.690Z,20.52
2019-03-22T17:55:09.216Z,31.93
2019-03-22T17:57:37.784Z,26.23
2019-03-22T18:00:16.433Z,22.25
2019-03-22T18:02:45.035Z,16.40
2019-03-22T18:05:13.615Z,24.40
2019-03-22T18:07:42.057Z,20.62
2019-03-22T18:10:13.381Z,25.55
2019-03-22T18:12:41.894Z,28.35
2019-03-22T18:15:12.693Z,26.10
2019-03-22T18:17:41.133Z,28.87
2019-03-22T18:20:14.818Z,23.02
2019-03-22T18:22:43.341Z,21.17
2019-03-22T18:25:13.107Z,21.50
2019-03-22T18:27:41.644Z,26.25
2019-03-22T18:30:12.892Z,31.37
2019-03-22T18:32:41.346Z,27.07
2019-03-22T18:35:10.215Z,33.20
2019-03-22T18:37:38.763Z,37.35
2019-03-22T18:40:09.581Z,32.00
2019-03-22T18:42:38.105Z,35.98
2019-03-22T18:45:08.796Z,33.92
2019-03-22T18:47:37.241Z,35.83
2019-03-22T18:50:08.396Z,40.65
2019-03-22T18:52:37.226Z,46.85
2019-03-22T18:55:06.999Z,35.90
2019-03-22T18:57:35.878Z,37.17
2019-03-22T19:00:09.857Z,40.83
2019-03-22T19:02:38.307Z,44.33
2019-03-22T19:05:08.145Z,40.78
2019-03-22T19:07:36.644Z,41.08
2019-03-22T19:10:10.947Z,33.42
2019-03-22T19:12:39.541Z,38.90
2019-03-22T19:15:10.720Z,33.23
2019-03-22T19:17:39.282Z,38.40
2019-03-22T19:20:10.508Z,31.33
2019-03-22T19:22:39.119Z,33.42
2019-03-22T19:25:09.383Z,32.88
2019-03-22T19:27:37.962Z,35.13
2019-03-22T19:30:09.475Z,33.18
2019-03-22T19:32:37.969Z,38.02
2019-03-22T19:35:08.434Z,43.58
2019-03-22T19:37:37.070Z,40.52
2019-03-22T19:40:08.211Z,45.23
2019-03-22T19:42:36.782Z,37.58
2019-03-22T19:45:07.910Z,37.42
2019-03-22T19:47:36.532Z,34.35
2019-03-22T19:50:08.354Z,38.17
2019-03-22T19:52:36.862Z,40.15
2019-03-22T19:55:09.443Z,39.38
2019-03-22T19:57:38.313Z,39.63
2019-03-22T20:00:12.415Z,41.18
2019-03-22T20:02:41.024Z,32.05
2019-03-22T20:05:10.024Z,38.63
2019-03-22T20:07:38.526Z,33.55
2019-03-22T20:10:12.246Z,34.92
2019-03-22T20:12:41.714Z,33.20
2019-03-22T20:15:10.674Z,35.73
2019-03-22T20:17:39.203Z,33.80
2019-03-22T20:20:09.273Z,40.00
2019-03-22T20:22:37.805Z,43.70
2019-03-22T20:25:08.381Z,38.05
2019-03-22T20:27:36.935Z,39.23
2019-03-22T20:30:08.416Z,34.67
2019-03-22T20:32:36.909Z,32.85
2019-03-22T20:35:15.692Z,35.78
2019-03-22T20:37:37.261Z,33.48
2019-03-22T20:40:08.426Z,35.48
2019-03-22T20:42:36.869Z,33.10
2019-03-22T20:45:07.103Z,35.43
2019-03-22T20:47:35.539Z,44.95
2019-03-22T20:50:07.797Z,44.65
2019-03-22T20:52:36.402Z,36.20
2019-03-22T20:55:09.644Z,31.95
2019-03-22T20:57:38.171Z,28.30
2019-03-22T21:00:12.177Z,33.50
2019-03-22T21:02:40.752Z,33.35
2019-03-22T21:05:09.600Z,27.25
2019-03-22T21:07:38.225Z,33.02
2019-03-22T21:10:08.642Z,29.70
2019-03-22T21:12:39.533Z,34.53
2019-03-22T21:15:10.206Z,34.48
2019-03-22T21:17:38.801Z,33.15
2019-03-22T21:20:11.155Z,30.62
2019-03-22T21:22:39.628Z,30.88
2019-03-22T21:25:09.368Z,27.20
2019-03-22T21:27:37.808Z,36.13
2019-03-22T21:30:08.687Z,33.85
2019-03-22T21:32:45.178Z,28.23
2019-03-22T21:35:08.409Z,31.00
2019-03-22T21:37:36.947Z,27.35
2019-03-22T21:40:07.304Z,29.23
2019-03-22T21:42:35.786Z,28.70
2019-03-22T21:45:05.858Z,30.72
2019-03-22T21:47:34.575Z,30.70
2019-03-22T21:50:03.601Z,31.30
2019-03-22T21:52:32.101Z,48.25
2019-03-22T21:55:00.621Z,84.85
2019-03-22T21:57:29.066Z,36.35
2019-03-22T21:59:57.591Z,27.73
2019-03-22T22:02:25.973Z,34.60
2019-03-22T22:04:54.497Z,38.80
2019-03-22T22:07:22.948Z,42.17
2019-03-22T22:09:51.380Z,36.60
2019-03-22T22:12:20.023Z,35.92
2019-03-22T22:14:48.461Z,35.28
2019-03-22T22:17:17.009Z,39.83
2019-03-22T22:19:45.465Z,38.90
2019-03-22T22:22:13.873Z,37.50
2019-03-22T22:24:42.343Z,46.83
2019-03-22T22:27:14.079Z,36.73
2019-03-22T22:29:41.030Z,39.80
2019-03-22T22:32:09.649Z,38.17
2019-03-22T22:34:38.093Z,36.05
2019-03-22T22:37:06.694Z,41.95
2019-03-22T22:39:35.151Z,35.40
2019-03-22T22:42:03.632Z,38.58
2019-03-22T22:44:32.093Z,35.28
2019-03-22T22:47:00.623Z,39.33
2019-03-22T22:49:29.101Z,32.00
2019-03-22T22:51:57.594Z,38.30
2019-03-22T22:54:26.029Z,32.58
2019-03-22T22:56:54.535Z,36.55
2019-03-22T22:59:22.997Z,27.77
2019-03-22T23:01:51.485Z,33.20
2019-03-22T23:04:19.980Z,30.35
2019-03-22T23:06:48.450Z,29.07
2019-03-22T23:09:16.955Z,30.40
2019-03-22T23:11:45.427Z,33.65
2019-03-22T23:14:13.979Z,28.40
2019-03-22T23:16:42.402Z,29.07
2019-03-22T23:19:10.891Z,33.05
2019-03-22T23:21:39.328Z,29.18
2019-03-22T23:24:07.755Z,33.15
2019-03-22T23:26:36.211Z,33.60
2019-03-22T23:29:04.856Z,36.58
2019-03-22T23:31:33.290Z,47.67
2019-03-22T23:34:01.715Z,39.25
2019-03-22T23:36:30.286Z,42.00
2019-03-22T23:38:58.750Z,39.83
2019-03-22T23:41:27.217Z,58.13
2019-03-22T23:43:55.659Z,41.30
2019-03-22T23:46:24.117Z,48.05
2019-03-22T23:48:52.534Z,39.27
2019-03-22T23:51:20.964Z,26.23
2019-03-22T23:53:49.425Z,30.15
2019-03-22T23:56:17.964Z,27.58
2019-03-22T23:58:46.404Z,33.78
